createdAt,value
2018-08-11T00:00:26.471Z,0.00
2018-08-11T00:01:26.450Z,0.00
2018-08-11T00:02:26.404Z,0.00
2018-08-11T00:03:26.365Z,0.00
2018-08-11T00:04:26.330Z,0.00
2018-08-11T00:05:26.296Z,0.00
2018-08-11T00:06:26.267Z,0.00
2018-08-11T00:07:26.228Z,0.00
2018-08-11T00:08:26.197Z,0.00
2018-08-11T00:09:26.163Z,0.00
2018-08-11T00:10:26.131Z,0.00
2018-08-11T00:11:26.094Z,0.00
2018-08-11T00:12:26.060Z,0.00
2018-08-11T00:13:26.032Z,0.00
2018-08-11T00:14:25.997Z,0.00
2018-08-11T00:15:25.963Z,0.00
2018-08-11T00:16:25.923Z,0.00
2018-08-11T00:17:25.886Z,0.00
2018-08-11T00:18:25.852Z,0.00
2018-08-11T00:19:25.821Z,0.00
2018-08-11T00:20:25.791Z,0.00
2018-08-11T00:21:25.756Z,0.00
2018-08-11T00:22:25.723Z,0.00
2018-08-11T00:23:25.701Z,0.00
2018-08-11T00:24:25.650Z,0.00
2018-08-11T00:25:25.614Z,0.00
2018-08-11T00:26:25.590Z,0.00
2018-08-11T00:27:25.550Z,0.00
2018-08-11T00:28:25.515Z,0.00
2018-08-11T00:29:25.478Z,0.00
2018-08-11T00:30:25.444Z,0.00
2018-08-11T00:31:25.412Z,0.00
2018-08-11T00:32:25.379Z,0.00
2018-08-11T00:33:25.348Z,0.00
2018-08-11T00:34:25.314Z,0.00
2018-08-11T00:35:25.278Z,0.00
2018-08-11T00:36:25.265Z,0.00
2018-08-11T00:37:25.205Z,0.00
2018-08-11T00:38:25.174Z,0.00
2018-08-11T00:39:25.139Z,0.00
2018-08-11T00:40:25.134Z,0.00
2018-08-11T00:41:25.077Z,0.00
2018-08-11T00:42:25.038Z,0.00
2018-08-11T00:43:25.004Z,0.00
2018-08-11T00:44:24.970Z,0.00
2018-08-11T00:45:24.938Z,0.00
2018-08-11T00:46:24.904Z,0.00
2018-08-11T00:47:24.868Z,0.00
2018-08-11T00:48:24.831Z,0.00
2018-08-11T00:49:24.839Z,0.00
2018-08-11T00:50:24.763Z,0.00
2018-08-11T00:51:24.733Z,0.00
2018-08-11T00:52:24.697Z,0.00
2018-08-11T00:53:24.665Z,0.00
2018-08-11T00:54:24.630Z,0.00
2018-08-11T00:55:24.595Z,0.00
2018-08-11T00:56:24.558Z,0.00
2018-08-11T00:57:24.525Z,0.00
2018-08-11T00:58:24.496Z,0.00
2018-08-11T00:59:24.462Z,0.00
2018-08-11T01:00:24.425Z,0.00
2018-08-11T01:01:24.438Z,0.00
2018-08-11T01:02:24.436Z,0.00
2018-08-11T01:03:24.322Z,0.00
2018-08-11T01:04:24.288Z,0.00
2018-08-11T01:05:24.254Z,0.00
2018-08-11T01:06:24.227Z,0.00
2018-08-11T01:07:24.184Z,0.00
2018-08-11T01:08:24.148Z,0.00
2018-08-11T01:09:24.112Z,0.00
2018-08-11T01:10:24.078Z,0.00
2018-08-11T01:11:24.047Z,0.00
2018-08-11T01:12:24.014Z,0.00
2018-08-11T01:13:23.982Z,0.00
2018-08-11T01:14:23.942Z,0.00
2018-08-11T01:15:23.910Z,0.00
2018-08-11T01:16:23.880Z,0.00
2018-08-11T01:17:23.845Z,0.00
2018-08-11T01:18:23.812Z,0.00
2018-08-11T01:19:23.775Z,0.00
2018-08-11T01:20:23.740Z,0.00
2018-08-11T01:21:23.707Z,0.00
2018-08-11T01:22:23.670Z,0.00
2018-08-11T01:23:23.636Z,0.00
2018-08-11T01:24:23.609Z,0.00
2018-08-11T01:25:23.572Z,0.00
2018-08-11T01:26:23.539Z,0.00
2018-08-11T01:27:23.502Z,0.00
2018-08-11T01:28:23.466Z,0.00
2018-08-11T01:29:23.433Z,0.00
2018-08-11T01:30:23.401Z,0.00
2018-08-11T01:31:23.365Z,0.00
2018-08-11T01:32:23.329Z,0.00
2018-08-11T01:33:23.296Z,0.00
2018-08-11T01:34:23.267Z,0.00
2018-08-11T01:35:23.227Z,0.00
2018-08-11T01:36:23.194Z,0.00
2018-08-11T01:37:23.162Z,0.00
2018-08-11T01:38:23.129Z,0.00
2018-08-11T01:39:23.092Z,0.00
2018-08-11T01:40:23.057Z,0.00
2018-08-11T01:41:23.025Z,0.00
2018-08-11T01:42:22.984Z,0.00
2018-08-11T01:43:22.953Z,0.00
2018-08-11T01:44:23.002Z,0.00
2018-08-11T01:45:22.890Z,0.00
2018-08-11T01:46:22.847Z,0.00
2018-08-11T01:47:22.818Z,0.00
2018-08-11T01:48:22.786Z,0.00
2018-08-11T01:49:22.752Z,0.00
2018-08-11T01:50:22.719Z,0.00
2018-08-11T01:51:22.681Z,0.00
2018-08-11T01:52:22.650Z,0.00
2018-08-11T01:53:22.608Z,0.00
2018-08-11T01:54:22.573Z,0.00
2018-08-11T01:55:22.543Z,0.00
2018-08-11T01:56:22.510Z,0.00
2018-08-11T01:57:22.479Z,0.00
2018-08-11T01:58:22.476Z,0.00
2018-08-11T01:59:22.411Z,0.00
2018-08-11T02:00:22.374Z,0.00
2018-08-11T02:01:22.336Z,0.00
2018-08-11T02:02:22.307Z,0.00
2018-08-11T02:03:22.272Z,0.00
2018-08-11T02:04:22.235Z,0.00
2018-08-11T02:05:22.202Z,0.00
2018-08-11T02:06:22.165Z,0.00
2018-08-11T02:07:22.181Z,0.00
2018-08-11T02:08:22.116Z,0.00
2018-08-11T02:09:22.071Z,0.00
2018-08-11T02:10:22.038Z,0.00
2018-08-11T02:11:22.082Z,0.00
2018-08-11T02:12:21.962Z,0.00
2018-08-11T02:13:21.926Z,0.00
2018-08-11T02:14:21.894Z,0.00
2018-08-11T02:15:21.860Z,0.00
2018-08-11T02:16:21.827Z,0.00
2018-08-11T02:17:21.795Z,0.00
2018-08-11T02:18:21.754Z,0.00
2018-08-11T02:19:21.726Z,0.00
2018-08-11T02:20:21.693Z,0.00
2018-08-11T02:21:21.660Z,0.00
2018-08-11T02:22:21.625Z,0.00
2018-08-11T02:23:21.590Z,0.00
2018-08-11T02:24:21.555Z,0.00
2018-08-11T02:25:21.519Z,0.00
2018-08-11T02:26:21.482Z,0.00
2018-08-11T02:27:21.450Z,0.00
2018-08-11T02:28:21.424Z,0.00
2018-08-11T02:29:21.388Z,0.00
2018-08-11T02:30:21.352Z,0.00
2018-08-11T02:31:21.316Z,0.00
2018-08-11T02:32:21.281Z,0.00
2018-08-11T02:33:21.249Z,0.00
2018-08-11T02:34:21.225Z,0.00
2018-08-11T02:35:21.180Z,0.00
2018-08-11T02:36:21.146Z,0.00
2018-08-11T02:37:21.108Z,0.00
2018-08-11T02:38:21.079Z,0.00
2018-08-11T02:39:21.041Z,0.00
2018-08-11T02:40:21.009Z,0.00
2018-08-11T02:41:20.977Z,0.00
2018-08-11T02:42:20.943Z,0.00
2018-08-11T02:43:20.907Z,0.00
2018-08-11T02:44:20.869Z,0.00
2018-08-11T02:45:20.833Z,0.00
2018-08-11T02:46:20.797Z,0.00
2018-08-11T02:47:20.767Z,0.00
2018-08-11T02:48:20.734Z,0.00
2018-08-11T02:49:20.702Z,0.00
2018-08-11T02:50:20.661Z,0.00
2018-08-11T02:51:20.628Z,0.00
2018-08-11T02:52:20.600Z,0.00
2018-08-11T02:53:20.563Z,0.00
2018-08-11T02:54:20.533Z,0.00
2018-08-11T02:55:20.493Z,0.00
2018-08-11T02:56:20.457Z,0.00
2018-08-11T02:57:20.420Z,0.00
2018-08-11T02:58:20.386Z,0.00
2018-08-11T02:59:20.359Z,0.00
2018-08-11T03:00:20.323Z,0.00
2018-08-11T03:01:20.290Z,0.00
2018-08-11T03:02:20.312Z,0.00
2018-08-11T03:03:20.232Z,0.00
2018-08-11T03:04:20.181Z,0.00
2018-08-11T03:05:20.146Z,0.00
2018-08-11T03:06:20.116Z,0.00
2018-08-11T03:07:20.084Z,0.00
2018-08-11T03:08:20.044Z,0.00
2018-08-11T03:09:20.008Z,0.00
2018-08-11T03:10:19.975Z,0.00
2018-08-11T03:11:19.942Z,0.00
2018-08-11T03:12:19.910Z,0.00
2018-08-11T03:13:19.876Z,0.00
2018-08-11T03:14:19.843Z,0.00
2018-08-11T03:15:19.807Z,0.00
2018-08-11T03:16:19.771Z,0.00
2018-08-11T03:17:19.733Z,0.00
2018-08-11T03:18:19.714Z,0.00
2018-08-11T03:19:19.665Z,0.00
2018-08-11T03:20:19.635Z,0.00
2018-08-11T03:21:19.601Z,0.00
2018-08-11T03:22:19.559Z,0.00
2018-08-11T03:23:19.527Z,0.00
2018-08-11T03:24:19.495Z,0.00
2018-08-11T03:25:19.462Z,0.00
2018-08-11T03:26:19.430Z,0.00
2018-08-11T03:27:19.398Z,0.00
2018-08-11T03:28:19.356Z,0.00
2018-08-11T03:29:19.321Z,0.00
2018-08-11T03:30:19.285Z,0.00
2018-08-11T03:31:19.252Z,0.00
2018-08-11T03:32:19.221Z,0.00
2018-08-11T03:33:19.194Z,0.00
2018-08-11T03:34:19.152Z,0.00
2018-08-11T03:35:19.115Z,0.00
2018-08-11T03:36:19.079Z,0.00
2018-08-11T03:37:19.044Z,0.00
2018-08-11T03:38:19.014Z,0.00
2018-08-11T03:39:18.980Z,0.00
2018-08-11T03:40:18.947Z,0.00
2018-08-11T03:41:18.912Z,0.00
2018-08-11T03:42:18.870Z,0.00
2018-08-11T03:43:18.838Z,4.00
2018-08-11T03:44:18.806Z,4.00
2018-08-11T03:45:18.773Z,0.00
2018-08-11T03:46:18.745Z,4.00
2018-08-11T03:47:18.726Z,4.00
2018-08-11T03:48:18.666Z,4.00
2018-08-11T03:49:18.632Z,4.00
2018-08-11T03:50:18.595Z,4.00
2018-08-11T03:51:18.562Z,8.00
2018-08-11T03:52:18.532Z,8.00
2018-08-11T03:53:18.497Z,8.00
2018-08-11T03:54:18.456Z,8.00
2018-08-11T04:06:58.610Z,52.00
2018-08-11T04:07:58.526Z,56.00
2018-08-11T04:08:58.488Z,64.00
2018-08-11T04:09:58.454Z,72.00
2018-08-11T04:10:58.415Z,76.00
2018-08-11T04:11:58.371Z,84.00
2018-08-11T04:12:58.334Z,96.00
2018-08-11T04:13:58.296Z,100.00
2018-08-11T04:14:58.262Z,112.00
2018-08-11T04:15:58.227Z,124.00
2018-08-11T04:16:58.198Z,136.00
2018-08-11T04:17:58.156Z,144.00
2018-08-11T04:18:58.119Z,152.00
2018-08-11T04:19:58.079Z,164.00
2018-08-11T04:20:58.043Z,176.00
2018-08-11T04:21:58.022Z,184.00
2018-08-11T04:22:57.973Z,196.00
2018-08-11T04:23:57.939Z,204.00
2018-08-11T04:24:57.908Z,208.00
2018-08-11T04:25:57.865Z,220.00
2018-08-11T04:26:57.830Z,228.00
2018-08-11T04:27:57.797Z,244.00
2018-08-11T04:28:57.764Z,260.00
2018-08-11T04:29:57.727Z,276.00
2018-08-11T04:30:57.691Z,296.00
2018-08-11T04:31:57.654Z,316.00
2018-08-11T04:32:57.616Z,336.00
2018-08-11T04:33:57.581Z,360.00
2018-08-11T04:34:57.549Z,388.00
2018-08-11T04:35:57.515Z,400.00
2018-08-11T04:36:57.488Z,420.00
2018-08-11T04:37:57.448Z,444.00
2018-08-11T04:38:57.412Z,484.00
2018-08-11T04:39:57.373Z,524.00
2018-08-11T04:40:57.339Z,548.00
2018-08-11T04:41:57.313Z,584.00
2018-08-11T04:42:57.273Z,620.00
2018-08-11T04:43:57.232Z,640.00
2018-08-11T04:44:57.202Z,652.00
2018-08-11T04:45:57.162Z,668.00
2018-08-11T04:46:57.130Z,704.00
2018-08-11T04:47:57.098Z,748.00
2018-08-11T04:48:57.062Z,776.00
2018-08-11T04:49:57.028Z,808.00
2018-08-11T04:50:56.991Z,808.00
2018-08-11T04:51:56.954Z,832.00
2018-08-11T04:52:56.917Z,856.00
2018-08-11T04:53:56.880Z,888.00
2018-08-11T04:54:56.853Z,936.00
2018-08-11T04:55:56.826Z,836.00
2018-08-11T04:56:56.783Z,844.00
2018-08-11T04:57:56.742Z,960.00
2018-08-11T04:58:56.712Z,1040.00
2018-08-11T04:59:56.676Z,1052.00
2018-08-11T05:00:56.648Z,1136.00
2018-08-11T05:01:56.609Z,1244.00
2018-08-11T05:02:56.572Z,1296.00
2018-08-11T05:03:56.541Z,1340.00
2018-08-11T05:04:56.498Z,1332.00
2018-08-11T05:05:56.465Z,1164.00
2018-08-11T05:06:56.436Z,1096.00
2018-08-11T05:07:56.398Z,1120.00
2018-08-11T05:08:56.369Z,1172.00
2018-08-11T05:09:56.334Z,1080.00
2018-08-11T05:10:56.300Z,1112.00
2018-08-11T05:11:56.258Z,1316.00
2018-08-11T05:12:56.221Z,1316.00
2018-08-11T05:13:56.196Z,1572.00
2018-08-11T05:14:56.158Z,1600.00
2018-08-11T05:15:56.120Z,1628.00
2018-08-11T05:16:56.087Z,1648.00
2018-08-11T05:17:56.051Z,1676.00
2018-08-11T05:18:56.020Z,1700.00
2018-08-11T05:19:56.045Z,1728.00
2018-08-11T05:20:55.952Z,1764.00
2018-08-11T05:21:55.919Z,1808.00
2018-08-11T05:22:55.880Z,1836.00
2018-08-11T05:23:55.843Z,1848.00
2018-08-11T05:24:55.806Z,1868.00
2018-08-11T05:25:55.777Z,1884.00
2018-08-11T05:26:55.739Z,1904.00
2018-08-11T05:27:55.709Z,1940.00
2018-08-11T05:28:55.674Z,1972.00
2018-08-11T05:29:55.635Z,1984.00
2018-08-11T05:30:55.610Z,2008.00
2018-08-11T05:31:55.569Z,2020.00
2018-08-11T05:32:55.538Z,1908.00
2018-08-11T05:33:55.503Z,1948.00
2018-08-11T05:34:55.473Z,2100.00
2018-08-11T05:35:55.432Z,2132.00
2018-08-11T05:36:55.392Z,2140.00
2018-08-11T05:37:55.360Z,2168.00
2018-08-11T05:38:55.325Z,2188.00
2018-08-11T05:39:55.293Z,2208.00
2018-08-11T05:40:55.266Z,2248.00
2018-08-11T05:41:55.228Z,2268.00
2018-08-11T05:42:55.192Z,2300.00
2018-08-11T05:43:55.154Z,2316.00
2018-08-11T05:44:55.123Z,2324.00
2018-08-11T05:45:55.093Z,2356.00
2018-08-11T05:46:55.067Z,2392.00
2018-08-11T05:47:55.016Z,2432.00
2018-08-11T05:48:54.993Z,2476.00
2018-08-11T05:49:54.952Z,2556.00
2018-08-11T05:50:54.919Z,2568.00
2018-08-11T05:51:54.889Z,2600.00
2018-08-11T05:52:54.850Z,2772.00
2018-08-11T05:53:54.816Z,2764.00
2018-08-11T05:54:54.785Z,2920.00
2018-08-11T05:55:54.748Z,2004.00
2018-08-11T05:56:54.707Z,2880.00
2018-08-11T05:57:54.673Z,2012.00
2018-08-11T05:58:54.646Z,2868.00
2018-08-11T05:59:54.609Z,2820.00
2018-08-11T06:00:54.578Z,2956.00
2018-08-11T06:01:54.561Z,2792.00
2018-08-11T06:02:54.504Z,2940.00
2018-08-11T06:03:54.521Z,2932.00
2018-08-11T06:04:54.443Z,2864.00
2018-08-11T06:05:54.410Z,2852.00
2018-08-11T06:06:54.371Z,2884.00
2018-08-11T06:07:54.334Z,2912.00
2018-08-11T06:08:54.297Z,2932.00
2018-08-11T06:09:54.265Z,2944.00
2018-08-11T06:10:54.261Z,3004.00
2018-08-11T06:11:54.199Z,3020.00
2018-08-11T06:12:54.171Z,3032.00
2018-08-11T06:13:54.137Z,3040.00
2018-08-11T06:14:54.098Z,3076.00
2018-08-11T06:15:54.068Z,3132.00
2018-08-11T06:16:54.026Z,3148.00
2018-08-11T06:17:53.999Z,3176.00
2018-08-11T06:18:53.962Z,3360.00
2018-08-11T06:19:53.926Z,3264.00
2018-08-11T06:20:53.890Z,3336.00
2018-08-11T06:21:53.861Z,3436.00
2018-08-11T06:22:53.825Z,3688.00
2018-08-11T06:23:53.802Z,3356.00
2018-08-11T06:24:53.761Z,3668.00
2018-08-11T06:25:53.731Z,4172.00
2018-08-11T06:26:53.692Z,3592.00
2018-08-11T06:27:53.655Z,2416.00
2018-08-11T06:28:53.621Z,3268.00
2018-08-11T06:29:53.592Z,2804.00
2018-08-11T06:30:53.557Z,2192.00
2018-08-11T06:31:53.537Z,2564.00
2018-08-11T06:32:53.491Z,2780.00
2018-08-11T06:33:53.452Z,2816.00
2018-08-11T06:34:53.423Z,2408.00
2018-08-11T06:35:53.389Z,2152.00
2018-08-11T06:36:53.358Z,2784.00
2018-08-11T06:37:53.323Z,2880.00
2018-08-11T06:38:53.291Z,3140.00
2018-08-11T06:39:53.251Z,2268.00
2018-08-11T06:40:53.275Z,3632.00
2018-08-11T06:41:53.363Z,3696.00
2018-08-11T06:42:53.152Z,3672.00
2018-08-11T06:43:53.120Z,3644.00
2018-08-11T06:44:53.089Z,3804.00
2018-08-11T06:45:53.059Z,3764.00
2018-08-11T06:46:53.030Z,3820.00
2018-08-11T06:47:52.983Z,4032.00
2018-08-11T06:48:52.952Z,4148.00
2018-08-11T06:49:52.919Z,4204.00
2018-08-11T06:50:52.887Z,3900.00
2018-08-11T06:51:52.848Z,4816.00
2018-08-11T06:52:52.941Z,3920.00
2018-08-11T06:53:52.784Z,4856.00
2018-08-11T06:54:52.756Z,4780.00
2018-08-11T06:55:52.717Z,4824.00
2018-08-11T06:56:52.691Z,3192.00
2018-08-11T06:57:52.657Z,3260.00
2018-08-11T06:58:52.618Z,3284.00
2018-08-11T06:59:52.579Z,3096.00
2018-08-11T07:00:52.547Z,2560.00
2018-08-11T07:01:52.512Z,2836.00
2018-08-11T07:02:52.484Z,2320.00
2018-08-11T07:03:52.492Z,2404.00
2018-08-11T07:04:52.417Z,2388.00
2018-08-11T07:05:52.378Z,2508.00
2018-08-11T07:06:52.356Z,2512.00
2018-08-11T07:07:52.316Z,2564.00
2018-08-11T07:08:52.307Z,2492.00
2018-08-11T07:09:52.257Z,3920.00
2018-08-11T07:10:52.215Z,3916.00
2018-08-11T07:11:52.178Z,3672.00
2018-08-11T07:12:52.146Z,4056.00
2018-08-11T07:13:52.110Z,4240.00
2018-08-11T07:14:52.085Z,3964.00
2018-08-11T07:15:52.047Z,4420.00
2018-08-11T07:16:52.018Z,4604.00
2018-08-11T07:17:51.983Z,3564.00
2018-08-11T07:18:51.948Z,3496.00
2018-08-11T07:19:51.910Z,3800.00
2018-08-11T07:20:51.879Z,3004.00
2018-08-11T07:21:51.851Z,2960.00
2018-08-11T07:22:51.832Z,2976.00
2018-08-11T07:23:51.777Z,3112.00
2018-08-11T07:24:51.743Z,2832.00
2018-08-11T07:25:51.712Z,2628.00
2018-08-11T07:26:51.682Z,2524.00
2018-08-11T07:27:51.646Z,2916.00
2018-08-11T07:28:51.615Z,3824.00
2018-08-11T07:29:51.581Z,4184.00
2018-08-11T07:30:51.547Z,4040.00
2018-08-11T07:31:51.546Z,4452.00
2018-08-11T07:32:51.476Z,4292.00
2018-08-11T07:33:51.443Z,4324.00
2018-08-11T07:34:51.416Z,4332.00
2018-08-11T07:35:51.378Z,4380.00
2018-08-11T07:36:51.354Z,4732.00
2018-08-11T07:37:51.309Z,4900.00
2018-08-11T07:38:51.279Z,5024.00
2018-08-11T07:39:51.246Z,4740.00
2018-08-11T07:40:51.296Z,4492.00
2018-08-11T07:41:51.181Z,5352.00
2018-08-11T07:42:51.146Z,5096.00
2018-08-11T07:43:51.112Z,4816.00
2018-08-11T07:44:51.076Z,2728.00
2018-08-11T07:45:51.045Z,2608.00
2018-08-11T07:46:51.011Z,2608.00
2018-08-11T07:47:50.989Z,2912.00
2018-08-11T07:48:50.949Z,3456.00
2018-08-11T07:49:50.931Z,3212.00
2018-08-11T07:50:50.881Z,2936.00
2018-08-11T07:51:50.846Z,3708.00
2018-08-11T07:52:50.811Z,2636.00
2018-08-11T07:53:50.783Z,2960.00
2018-08-11T07:54:50.750Z,3392.00
2018-08-11T07:55:50.723Z,3080.00
2018-08-11T07:56:50.678Z,2960.00
2018-08-11T07:57:50.647Z,5164.00
2018-08-11T07:58:50.614Z,4888.00
2018-08-11T07:59:50.586Z,4908.00
2018-08-11T08:00:50.551Z,5084.00
2018-08-11T08:01:50.519Z,5044.00
2018-08-11T08:02:50.483Z,5100.00
2018-08-11T08:03:50.449Z,5356.00
2018-08-11T08:04:50.413Z,5560.00
2018-08-11T08:05:50.380Z,5900.00
2018-08-11T08:06:50.348Z,5896.00
2018-08-11T08:07:50.318Z,5568.00
2018-08-11T08:08:50.286Z,4832.00
2018-08-11T08:09:50.249Z,3060.00
2018-08-11T08:10:50.216Z,4888.00
2018-08-11T08:11:50.187Z,5068.00
2018-08-11T08:12:50.155Z,4208.00
2018-08-11T08:13:50.126Z,3464.00
2018-08-11T08:14:50.087Z,2484.00
2018-08-11T08:15:50.053Z,2504.00
2018-08-11T08:16:50.018Z,2652.00
2018-08-11T08:17:49.984Z,2900.00
2018-08-11T08:18:49.952Z,3188.00
2018-08-11T08:19:49.921Z,4840.00
2018-08-11T08:20:49.891Z,3056.00
2018-08-11T08:21:49.858Z,5256.00
2018-08-11T08:22:49.824Z,3348.00
2018-08-11T08:23:49.788Z,3624.00
2018-08-11T08:24:49.754Z,4204.00
2018-08-11T08:25:49.727Z,3140.00
2018-08-11T08:26:49.746Z,3652.00
2018-08-11T08:27:49.655Z,3036.00
2018-08-11T08:28:49.628Z,3152.00
2018-08-11T08:29:49.590Z,3136.00
2018-08-11T08:30:49.558Z,4636.00
2018-08-11T08:31:49.531Z,3248.00
2018-08-11T08:32:49.495Z,3012.00
2018-08-11T08:33:49.527Z,2844.00
2018-08-11T08:34:49.430Z,2760.00
2018-08-11T08:35:49.389Z,3784.00
2018-08-11T08:36:49.359Z,4944.00
2018-08-11T08:37:49.326Z,5084.00
2018-08-11T08:38:49.292Z,4920.00
2018-08-11T08:39:49.267Z,4848.00
2018-08-11T08:40:49.232Z,4804.00
2018-08-11T08:41:49.222Z,4808.00
2018-08-11T08:42:49.160Z,4964.00
2018-08-11T08:43:49.131Z,5232.00
2018-08-11T08:44:49.097Z,5232.00
2018-08-11T08:45:49.070Z,5068.00
2018-08-11T08:46:49.033Z,5356.00
2018-08-11T08:47:48.994Z,5384.00
2018-08-11T08:48:48.964Z,5708.00
2018-08-11T08:49:48.930Z,5852.00
2018-08-11T08:50:48.896Z,5700.00
2018-08-11T08:51:48.872Z,5920.00
2018-08-11T08:52:48.834Z,5960.00
2018-08-11T08:53:48.803Z,5700.00
2018-08-11T08:54:48.772Z,4356.00
2018-08-11T08:55:48.731Z,5608.00
2018-08-11T08:56:48.704Z,4020.00
2018-08-11T08:57:48.672Z,3492.00
2018-08-11T08:58:48.644Z,3140.00
2018-08-11T08:59:48.601Z,2916.00
2018-08-11T09:00:48.579Z,2828.00
2018-08-11T09:01:48.539Z,2920.00
2018-08-11T09:02:48.509Z,5260.00
2018-08-11T09:03:48.482Z,5400.00
2018-08-11T09:04:48.451Z,5480.00
2018-08-11T09:05:48.414Z,5504.00
2018-08-11T09:06:48.381Z,5740.00
2018-08-11T09:07:48.342Z,3660.00
2018-08-11T09:08:48.315Z,3604.00
2018-08-11T09:09:48.281Z,3680.00
2018-08-11T09:10:48.248Z,3960.00
2018-08-11T09:11:48.217Z,3616.00
2018-08-11T09:12:48.184Z,3692.00
2018-08-11T09:13:48.152Z,3616.00
2018-08-11T09:14:48.115Z,3508.00
2018-08-11T09:15:48.092Z,5668.00
2018-08-11T09:16:48.056Z,3500.00
2018-08-11T09:17:48.020Z,3408.00
2018-08-11T09:18:47.991Z,3284.00
2018-08-11T09:19:47.955Z,3320.00
2018-08-11T09:20:47.920Z,3252.00
2018-08-11T09:21:47.889Z,3480.00
2018-08-11T09:22:47.854Z,3516.00
2018-08-11T09:23:47.862Z,5968.00
2018-08-11T09:24:47.792Z,5412.00
2018-08-11T09:25:47.762Z,5708.00
2018-08-11T09:26:47.729Z,5688.00
2018-08-11T09:27:47.691Z,5768.00
2018-08-11T09:28:47.661Z,5420.00
2018-08-11T09:29:47.629Z,5476.00
2018-08-11T09:30:47.599Z,3276.00
2018-08-11T09:31:47.565Z,3320.00
2018-08-11T09:32:47.531Z,3408.00
2018-08-11T09:33:47.499Z,3580.00
2018-08-11T09:34:47.478Z,3692.00
2018-08-11T09:35:47.436Z,3504.00
2018-08-11T09:36:47.402Z,3428.00
2018-08-11T09:37:47.370Z,3376.00
2018-08-11T09:38:47.342Z,3420.00
2018-08-11T09:39:47.301Z,3516.00
2018-08-11T09:40:47.285Z,3556.00
2018-08-11T09:41:47.239Z,3564.00
2018-08-11T09:42:47.204Z,3420.00
2018-08-11T09:43:47.177Z,3640.00
2018-08-11T09:44:47.143Z,5472.00
2018-08-11T09:45:47.153Z,3644.00
2018-08-11T09:46:47.077Z,5568.00
2018-08-11T09:47:47.053Z,5608.00
2018-08-11T09:48:47.013Z,5596.00
2018-08-11T09:49:46.978Z,5540.00
2018-08-11T09:50:46.950Z,5420.00
2018-08-11T09:51:46.913Z,4812.00
2018-08-11T09:52:46.881Z,5396.00
2018-08-11T09:53:46.858Z,3056.00
2018-08-11T09:54:46.815Z,3256.00
2018-08-11T09:55:46.787Z,3540.00
2018-08-11T09:56:46.755Z,3844.00
2018-08-11T09:57:46.722Z,3576.00
2018-08-11T09:58:46.744Z,3536.00
2018-08-11T09:59:46.654Z,3744.00
2018-08-11T10:00:46.626Z,3888.00
2018-08-11T10:01:46.593Z,3808.00
2018-08-11T10:02:46.562Z,4176.00
2018-08-11T10:03:46.526Z,3644.00
2018-08-11T10:04:46.495Z,3560.00
2018-08-11T10:05:46.463Z,3452.00
2018-08-11T10:06:46.428Z,3572.00
2018-08-11T10:07:46.402Z,5536.00
2018-08-11T10:21:16.445Z,4888.00
2018-08-11T10:22:16.395Z,4812.00
2018-08-11T10:23:16.348Z,6212.00
2018-08-11T10:24:16.307Z,4724.00
2018-08-11T10:25:16.273Z,6064.00
2018-08-11T10:26:16.241Z,5920.00
2018-08-11T10:27:16.205Z,5632.00
2018-08-11T10:28:16.171Z,5412.00
2018-08-11T10:29:16.140Z,5392.00
2018-08-11T10:30:16.100Z,5468.00
2018-08-11T10:31:16.066Z,3772.00
2018-08-11T10:32:16.033Z,5820.00
2018-08-11T10:33:15.998Z,6324.00
2018-08-11T10:34:15.969Z,6484.00
2018-08-11T10:35:15.942Z,6520.00
2018-08-11T10:36:15.902Z,6580.00
2018-08-11T10:37:15.877Z,6452.00
2018-08-11T10:38:15.833Z,6340.00
2018-08-11T10:39:15.803Z,6156.00
2018-08-11T10:40:15.905Z,6092.00
2018-08-11T10:41:15.745Z,3844.00
2018-08-11T10:42:15.707Z,3640.00
2018-08-11T10:43:15.676Z,3548.00
2018-08-11T10:44:15.647Z,3432.00
2018-08-11T10:45:15.608Z,5668.00
2018-08-11T10:46:15.585Z,5508.00
2018-08-11T10:47:15.550Z,3440.00
2018-08-11T10:48:15.518Z,3716.00
2018-08-11T10:49:15.488Z,4636.00
2018-08-11T10:50:15.451Z,4024.00
2018-08-11T10:51:15.420Z,6056.00
2018-08-11T10:52:15.388Z,6108.00
2018-08-11T10:53:15.356Z,5996.00
2018-08-11T10:54:15.333Z,3816.00
2018-08-11T10:55:15.343Z,3700.00
2018-08-11T10:56:15.264Z,3724.00
2018-08-11T10:57:15.227Z,3724.00
2018-08-11T10:58:15.203Z,5856.00
2018-08-11T10:59:15.168Z,5968.00
2018-08-11T11:00:15.137Z,5932.00
2018-08-11T11:01:15.116Z,3880.00
2018-08-11T11:02:15.070Z,4116.00
2018-08-11T11:03:15.039Z,4088.00
2018-08-11T11:04:15.008Z,5148.00
2018-08-11T11:05:14.980Z,5148.00
2018-08-11T11:06:14.951Z,4908.00
2018-08-11T11:07:14.916Z,5036.00
2018-08-11T11:08:14.935Z,5132.00
2018-08-11T11:09:14.859Z,5276.00
2018-08-11T11:10:14.817Z,5588.00
2018-08-11T11:11:14.788Z,5860.00
2018-08-11T11:12:14.759Z,5712.00
2018-08-11T11:13:14.731Z,5912.00
2018-08-11T11:14:14.745Z,6196.00
2018-08-11T11:15:14.663Z,6300.00
2018-08-11T11:16:14.638Z,6212.00
2018-08-11T11:17:14.599Z,6204.00
2018-08-11T11:18:14.576Z,6228.00
2018-08-11T11:19:14.544Z,6360.00
2018-08-11T11:20:14.510Z,6544.00
2018-08-11T11:21:14.480Z,6572.00
2018-08-11T11:22:14.442Z,6412.00
2018-08-11T11:23:14.416Z,4124.00
2018-08-11T11:24:14.383Z,3932.00
2018-08-11T11:25:14.353Z,3928.00
2018-08-11T11:26:14.328Z,4204.00
2018-08-11T11:27:14.292Z,6132.00
2018-08-11T11:28:14.260Z,6008.00
2018-08-11T11:29:14.226Z,4324.00
2018-08-11T11:30:14.201Z,3380.00
2018-08-11T11:31:14.173Z,3292.00
2018-08-11T11:32:14.137Z,3312.00
2018-08-11T11:33:14.108Z,3340.00
2018-08-11T11:34:14.070Z,3380.00
2018-08-11T11:35:14.042Z,5464.00
2018-08-11T11:36:14.012Z,5872.00
2018-08-11T11:37:13.989Z,3432.00
2018-08-11T11:38:13.957Z,3432.00
2018-08-11T11:39:13.918Z,3396.00
2018-08-11T11:40:13.895Z,3364.00
2018-08-11T11:41:13.860Z,3416.00
2018-08-11T11:42:13.824Z,3740.00
2018-08-11T11:43:13.811Z,3532.00
2018-08-11T11:44:13.764Z,3632.00
2018-08-11T11:45:13.736Z,6080.00
2018-08-11T11:46:13.697Z,6352.00
2018-08-11T11:47:13.664Z,6540.00
2018-08-11T11:48:13.639Z,5740.00
2018-08-11T11:49:13.602Z,4484.00
2018-08-11T11:50:13.575Z,4468.00
2018-08-11T11:51:13.541Z,3704.00
2018-08-11T11:52:13.514Z,3484.00
2018-08-11T11:53:13.482Z,3380.00
2018-08-11T11:54:13.444Z,3600.00
2018-08-11T11:55:13.415Z,3992.00
2018-08-11T11:56:13.384Z,6528.00
2018-08-11T11:57:13.351Z,4468.00
2018-08-11T11:58:13.331Z,6040.00
2018-08-11T11:59:13.292Z,6624.00
2018-08-11T12:00:13.258Z,6572.00
2018-08-11T12:01:13.227Z,6168.00
2018-08-11T12:02:13.200Z,4992.00
2018-08-11T12:03:13.168Z,5792.00
2018-08-11T12:04:13.145Z,3740.00
2018-08-11T12:05:13.109Z,5604.00
2018-08-11T12:06:13.070Z,6208.00
2018-08-11T12:07:13.045Z,5784.00
2018-08-11T12:08:13.010Z,5796.00
2018-08-11T12:09:12.978Z,5864.00
2018-08-11T12:10:12.952Z,5924.00
2018-08-11T12:11:12.924Z,5976.00
2018-08-11T12:12:12.890Z,5928.00
2018-08-11T12:13:12.860Z,5776.00
2018-08-11T12:14:12.823Z,5812.00
2018-08-11T12:15:12.795Z,5304.00
2018-08-11T12:16:12.765Z,6004.00
2018-08-11T12:17:12.738Z,5932.00
2018-08-11T12:18:12.699Z,6032.00
2018-08-11T12:19:12.670Z,6152.00
2018-08-11T12:20:12.641Z,6308.00
2018-08-11T12:21:12.607Z,6452.00
2018-08-11T12:22:12.585Z,6440.00
2018-08-11T12:23:12.550Z,6076.00
2018-08-11T12:24:12.570Z,6008.00
2018-08-11T12:25:12.803Z,6124.00
2018-08-11T12:26:12.456Z,5908.00
2018-08-11T12:27:12.426Z,5996.00
2018-08-11T12:28:12.396Z,6056.00
2018-08-11T12:29:12.363Z,6008.00
2018-08-11T12:30:12.347Z,6100.00
2018-08-11T12:31:12.317Z,5808.00
2018-08-11T12:32:12.276Z,6416.00
2018-08-11T12:33:12.243Z,6504.00
2018-08-11T12:34:12.215Z,6260.00
2018-08-11T12:35:12.184Z,3508.00
2018-08-11T12:36:12.159Z,3280.00
2018-08-11T12:37:12.128Z,3272.00
2018-08-11T12:38:12.090Z,5680.00
2018-08-11T12:39:12.060Z,3368.00
2018-08-11T12:40:12.029Z,3300.00
2018-08-11T12:41:11.999Z,3712.00
2018-08-11T12:42:11.973Z,3340.00
2018-08-11T12:43:11.940Z,3172.00
2018-08-11T12:44:11.911Z,3060.00
2018-08-11T12:45:11.882Z,3164.00
2018-08-11T12:46:11.849Z,3660.00
2018-08-11T12:47:12.003Z,5420.00
2018-08-11T12:48:11.790Z,5376.00
2018-08-11T12:49:11.758Z,5556.00
2018-08-11T12:50:11.725Z,5068.00
2018-08-11T12:51:11.695Z,5836.00
2018-08-11T12:52:11.663Z,3324.00